sensor_id;sensor_type;location;lat;lon;timestamp;P1;durP1;ratioP1;P2;durP2;ratioP2
72645;SDS011;60687;53.876;10.674;2023-10-13T00:06:05;7.63;;;1.73;;
72645;SDS011;60687;53.876;10.674;2023-10-13T00:16:09;8.23;;;1.97;;
72645;SDS011;60687;53.876;10.674;2023-10-13T00:26:19;7.82;;;2.38;;
72645;SDS011;60687;53.876;10.674;2023-10-13T00:36:27;8.90;;;1.77;;
72645;SDS011;60687;53.876;10.674;2023-10-13T00:46:34;6.30;;;2.10;;
72645;SDS011;60687;53.876;10.674;2023-10-13T00:56:40;8.00;;;1.90;;
72645;SDS011;60687;53.876;10.674;2023-10-13T01:06:48;6.23;;;1.90;;
72645;SDS011;60687;53.876;10.674;2023-10-13T01:16:51;8.20;;;2.10;;
72645;SDS011;60687;53.876;10.674;2023-10-13T01:26:57;6.57;;;1.80;;
72645;SDS011;60687;53.876;10.674;2023-10-13T01:37:09;6.93;;;1.90;;
72645;SDS011;60687;53.876;10.674;2023-10-13T01:47:13;5.87;;;1.87;;
72645;SDS011;60687;53.876;10.674;2023-10-13T01:57:17;6.50;;;2.03;;
72645;SDS011;60687;53.876;10.674;2023-10-13T02:07:21;8.70;;;2.20;;
72645;SDS011;60687;53.876;10.674;2023-10-13T02:17:27;11.53;;;2.90;;
72645;SDS011;60687;53.876;10.674;2023-10-13T02:27:32;7.43;;;2.43;;
72645;SDS011;60687;53.876;10.674;2023-10-13T02:37:41;10.13;;;2.90;;
72645;SDS011;60687;53.876;10.674;2023-10-13T02:47:46;11.43;;;3.30;;
72645;SDS011;60687;53.876;10.674;2023-10-13T02:58:09;14.30;;;3.53;;
72645;SDS011;60687;53.876;10.674;2023-10-13T03:08:16;10.02;;;3.92;;
72645;SDS011;60687;53.876;10.674;2023-10-13T03:18:27;15.77;;;4.60;;
72645;SDS011;60687;53.876;10.674;2023-10-13T03:28:35;18.27;;;4.90;;
72645;SDS011;60687;53.876;10.674;2023-10-13T03:38:38;18.77;;;6.17;;
72645;SDS011;60687;53.876;10.674;2023-10-13T03:48:42;18.67;;;6.40;;
72645;SDS011;60687;53.876;10.674;2023-10-13T03:58:55;21.63;;;7.20;;
72645;SDS011;60687;53.876;10.674;2023-10-13T04:09:03;19.10;;;7.10;;
72645;SDS011;60687;53.876;10.674;2023-10-13T04:19:32;19.35;;;6.80;;
72645;SDS011;60687;53.876;10.674;2023-10-13T04:29:56;17.90;;;6.63;;
72645;SDS011;60687;53.876;10.674;2023-10-13T04:40:12;16.07;;;6.53;;
72645;SDS011;60687;53.876;10.674;2023-10-13T04:50:26;11.43;;;4.68;;
72645;SDS011;60687;53.876;10.674;2023-10-13T05:00:35;13.60;;;5.18;;
72645;SDS011;60687;53.876;10.674;2023-10-13T05:11:19;13.87;;;5.57;;
72645;SDS011;60687;53.876;10.674;2023-10-13T05:21:40;12.83;;;5.33;;
72645;SDS011;60687;53.876;10.674;2023-10-13T05:32:02;13.07;;;5.40;;
72645;SDS011;60687;53.876;10.674;2023-10-13T05:42:23;13.77;;;5.70;;
72645;SDS011;60687;53.876;10.674;2023-10-13T05:52:46;16.10;;;5.50;;
72645;SDS011;60687;53.876;10.674;2023-10-13T06:03:12;18.45;;;7.97;;
72645;SDS011;60687;53.876;10.674;2023-10-13T06:13:33;20.67;;;7.93;;
72645;SDS011;60687;53.876;10.674;2023-10-13T06:23:53;19.57;;;8.00;;
72645;SDS011;60687;53.876;10.674;2023-10-13T06:34:18;27.00;;;9.30;;
72645;SDS011;60687;53.876;10.674;2023-10-13T06:44:28;23.67;;;9.20;;
72645;SDS011;60687;53.876;10.674;2023-10-13T06:54:36;22.60;;;8.90;;
72645;SDS011;60687;53.876;10.674;2023-10-13T07:04:39;25.27;;;9.80;;
72645;SDS011;60687;53.876;10.674;2023-10-13T07:14:48;28.27;;;11.07;;
72645;SDS011;60687;53.876;10.674;2023-10-13T07:24:54;23.60;;;10.10;;
72645;SDS011;60687;53.876;10.674;2023-10-13T07:35:00;30.10;;;12.17;;
72645;SDS011;60687;53.876;10.674;2023-10-13T07:45:08;28.35;;;11.82;;
72645;SDS011;60687;53.876;10.674;2023-10-13T07:55:15;26.50;;;11.73;;
72645;SDS011;60687;53.876;10.674;2023-10-13T08:05:21;30.17;;;12.93;;
72645;SDS011;60687;53.876;10.674;2023-10-13T08:15:41;30.80;;;13.63;;
72645;SDS011;60687;53.876;10.674;2023-10-13T08:25:49;29.27;;;13.98;;
72645;SDS011;60687;53.876;10.674;2023-10-13T08:36:10;27.83;;;12.67;;
72645;SDS011;60687;53.876;10.674;2023-10-13T08:46:32;22.60;;;10.87;;
72645;SDS011;60687;53.876;10.674;2023-10-13T08:57:04;18.55;;;9.40;;
72645;SDS011;60687;53.876;10.674;2023-10-13T09:07:43;16.73;;;8.67;;
72645;SDS011;60687;53.876;10.674;2023-10-13T09:17:49;15.70;;;8.47;;
72645;SDS011;60687;53.876;10.674;2023-10-13T09:28:15;16.67;;;8.18;;
72645;SDS011;60687;53.876;10.674;2023-10-13T09:38:24;12.63;;;6.17;;
72645;SDS011;60687;53.876;10.674;2023-10-13T09:48:30;10.70;;;5.87;;
72645;SDS011;60687;53.876;10.674;2023-10-13T09:58:36;11.27;;;5.07;;
72645;SDS011;60687;53.876;10.674;2023-10-13T10:08:47;9.15;;;4.43;;
72645;SDS011;60687;53.876;10.674;2023-10-13T10:19:00;8.97;;;4.30;;
72645;SDS011;60687;53.876;10.674;2023-10-13T10:29:10;10.33;;;4.57;;
72645;SDS011;60687;53.876;10.674;2023-10-13T10:39:15;10.05;;;4.40;;
72645;SDS011;60687;53.876;10.674;2023-10-13T10:49:24;8.73;;;4.60;;
72645;SDS011;60687;53.876;10.674;2023-10-13T10:59:35;8.90;;;4.03;;
72645;SDS011;60687;53.876;10.674;2023-10-13T11:09:41;9.70;;;4.32;;
72645;SDS011;60687;53.876;10.674;2023-10-13T11:19:49;9.80;;;3.83;;
72645;SDS011;60687;53.876;10.674;2023-10-13T11:29:52;9.53;;;3.77;;
72645;SDS011;60687;53.876;10.674;2023-10-13T11:39:56;9.80;;;4.80;;
72645;SDS011;60687;53.876;10.674;2023-10-13T11:50:01;10.38;;;4.45;;
72645;SDS011;60687;53.876;10.674;2023-10-13T12:00:08;10.30;;;4.73;;
72645;SDS011;60687;53.876;10.674;2023-10-13T12:10:27;12.73;;;5.37;;
72645;SDS011;60687;53.876;10.674;2023-10-13T12:20:41;12.00;;;4.80;;
72645;SDS011;60687;53.876;10.674;2023-10-13T12:30:46;10.30;;;4.57;;
72645;SDS011;60687;53.876;10.674;2023-10-13T12:40:54;9.53;;;4.10;;
72645;SDS011;60687;53.876;10.674;2023-10-13T12:51:28;11.05;;;4.25;;
72645;SDS011;60687;53.876;10.674;2023-10-13T13:01:53;9.80;;;4.03;;
72645;SDS011;60687;53.876;10.674;2023-10-13T13:11:58;11.60;;;4.23;;
72645;SDS011;60687;53.876;10.674;2023-10-13T13:22:05;10.38;;;3.60;;
72645;SDS011;60687;53.876;10.674;2023-10-13T13:32:14;10.80;;;3.88;;
72645;SDS011;60687;53.876;10.674;2023-10-13T13:42:25;9.97;;;3.70;;
72645;SDS011;60687;53.876;10.674;2023-10-13T13:52:37;13.07;;;3.80;;
72645;SDS011;60687;53.876;10.674;2023-10-13T14:02:47;10.00;;;3.72;;
72645;SDS011;60687;53.876;10.674;2023-10-13T14:12:55;10.73;;;3.90;;
72645;SDS011;60687;53.876;10.674;2023-10-13T14:23:14;10.07;;;3.37;;
72645;SDS011;60687;53.876;10.674;2023-10-13T14:33:21;12.23;;;4.50;;
72645;SDS011;60687;53.876;10.674;2023-10-13T14:43:27;11.80;;;4.33;;
72645;SDS011;60687;53.876;10.674;2023-10-13T14:53:33;10.73;;;4.17;;
72645;SDS011;60687;53.876;10.674;2023-10-13T15:03:41;12.57;;;4.50;;
72645;SDS011;60687;53.876;10.674;2023-10-13T15:13:46;11.33;;;4.50;;
72645;SDS011;60687;53.876;10.674;2023-10-13T15:24:00;13.03;;;4.70;;
72645;SDS011;60687;53.876;10.674;2023-10-13T15:34:17;13.70;;;4.60;;
72645;SDS011;60687;53.876;10.674;2023-10-13T15:44:30;11.68;;;4.22;;
72645;SDS011;60687;53.876;10.674;2023-10-13T15:54:38;12.33;;;4.27;;
72645;SDS011;60687;53.876;10.674;2023-10-13T16:15:14;12.98;;;4.30;;
72645;SDS011;60687;53.876;10.674;2023-10-13T16:26:00;10.67;;;4.07;;
72645;SDS011;60687;53.876;10.674;2023-10-13T16:36:17;10.67;;;4.50;;
72645;SDS011;60687;53.876;10.674;2023-10-13T16:57:43;14.02;;;5.25;;
72645;SDS011;60687;53.876;10.674;2023-10-13T17:08:00;12.47;;;4.10;;
72645;SDS011;60687;53.876;10.674;2023-10-13T17:18:13;12.73;;;4.20;;
72645;SDS011;60687;53.876;10.674;2023-10-13T17:28:18;12.10;;;4.00;;
72645;SDS011;60687;53.876;10.674;2023-10-13T17:38:31;10.80;;;4.27;;
72645;SDS011;60687;53.876;10.674;2023-10-13T17:48:47;14.03;;;4.00;;
72645;SDS011;60687;53.876;10.674;2023-10-13T17:58:51;11.23;;;3.58;;
72645;SDS011;60687;53.876;10.674;2023-10-13T18:08:54;11.10;;;3.00;;
72645;SDS011;60687;53.876;10.674;2023-10-13T18:19:02;8.23;;;3.33;;
72645;SDS011;60687;53.876;10.674;2023-10-13T18:29:08;11.52;;;3.17;;
72645;SDS011;60687;53.876;10.674;2023-10-13T18:39:12;9.70;;;2.90;;
72645;SDS011;60687;53.876;10.674;2023-10-13T18:49:27;9.53;;;2.80;;
72645;SDS011;60687;53.876;10.674;2023-10-13T18:59:42;10.57;;;2.70;;
72645;SDS011;60687;53.876;10.674;2023-10-13T19:09:47;7.38;;;2.65;;
72645;SDS011;60687;53.876;10.674;2023-10-13T19:20:27;9.53;;;3.00;;
72645;SDS011;60687;53.876;10.674;2023-10-13T19:30:51;11.20;;;2.90;;
72645;SDS011;60687;53.876;10.674;2023-10-13T19:41:05;10.70;;;3.10;;
72645;SDS011;60687;53.876;10.674;2023-10-13T19:51:20;7.97;;;2.50;;
72645;SDS011;60687;53.876;10.674;2023-10-13T20:01:29;9.23;;;2.70;;
72645;SDS011;60687;53.876;10.674;2023-10-13T20:12:16;7.93;;;2.90;;
72645;SDS011;60687;53.876;10.674;2023-10-13T20:22:25;9.87;;;3.40;;
72645;SDS011;60687;53.876;10.674;2023-10-13T20:32:36;13.30;;;3.93;;
72645;SDS011;60687;53.876;10.674;2023-10-13T20:42:43;10.77;;;3.47;;
72645;SDS011;60687;53.876;10.674;2023-10-13T20:53:05;12.88;;;4.30;;
72645;SDS011;60687;53.876;10.674;2023-10-13T21:03:19;13.50;;;4.13;;
72645;SDS011;60687;53.876;10.674;2023-10-13T21:13:22;10.93;;;3.60;;
72645;SDS011;60687;53.876;10.674;2023-10-13T21:23:26;9.00;;;3.25;;
72645;SDS011;60687;53.876;10.674;2023-10-13T21:33:43;9.83;;;2.60;;
72645;SDS011;60687;53.876;10.674;2023-10-13T21:43:54;7.83;;;2.67;;
72645;SDS011;60687;53.876;10.674;2023-10-13T21:54:07;9.25;;;2.80;;
72645;SDS011;60687;53.876;10.674;2023-10-13T22:04:13;7.30;;;2.70;;
72645;SDS011;60687;53.876;10.674;2023-10-13T22:14:22;9.07;;;2.67;;
72645;SDS011;60687;53.876;10.674;2023-10-13T22:24:26;8.90;;;2.70;;
72645;SDS011;60687;53.876;10.674;2023-10-13T22:34:40;9.07;;;2.72;;
72645;SDS011;60687;53.876;10.674;2023-10-13T22:44:44;7.40;;;2.80;;
72645;SDS011;60687;53.876;10.674;2023-10-13T22:54:47;8.67;;;3.20;;
72645;SDS011;60687;53.876;10.674;2023-10-13T23:04:54;7.78;;;3.53;;
72645;SDS011;60687;53.876;10.674;2023-10-13T23:15:00;8.33;;;2.93;;
72645;SDS011;60687;53.876;10.674;2023-10-13T23:25:13;11.10;;;4.17;;
72645;SDS011;60687;53.876;10.674;2023-10-13T23:35:16;11.57;;;4.25;;
72645;SDS011;60687;53.876;10.674;2023-10-13T23:45:20;12.32;;;5.13;;
72645;SDS011;60687;53.876;10.674;2023-10-13T23:55:24;9.87;;;4.00;;
